sensor_id;sensor_type;location;lat;lon;timestamp;temperature;humidity
2497;DHT22;1259;48.306;14.374;2023-05-31T00:01:22;13.90;61.50
2497;DHT22;1259;48.306;14.374;2023-05-31T00:03:49;13.90;61.40
2497;DHT22;1259;48.306;14.374;2023-05-31T00:06:15;13.90;61.80
2497;DHT22;1259;48.306;14.374;2023-05-31T00:08:42;13.80;62.10
2497;DHT22;1259;48.306;14.374;2023-05-31T00:11:09;13.70;62.80
2497;DHT22;1259;48.306;14.374;2023-05-31T00:13:36;13.70;62.60
2497;DHT22;1259;48.306;14.374;2023-05-31T00:16:04;13.70;63.00
2497;DHT22;1259;48.306;14.374;2023-05-31T00:18:32;13.70;63.20
2497;DHT22;1259;48.306;14.374;2023-05-31T00:20:58;13.70;63.30
2497;DHT22;1259;48.306;14.374;2023-05-31T00:23:25;13.60;63.10
2497;DHT22;1259;48.306;14.374;2023-05-31T00:25:52;13.60;63.30
2497;DHT22;1259;48.306;14.374;2023-05-31T00:28:18;13.60;63.40
2497;DHT22;1259;48.306;14.374;2023-05-31T00:30:45;13.60;63.30
2497;DHT22;1259;48.306;14.374;2023-05-31T00:33:12;13.60;63.60
2497;DHT22;1259;48.306;14.374;2023-05-31T00:35:40;13.60;63.10
2497;DHT22;1259;48.306;14.374;2023-05-31T00:38:06;13.60;63.00
2497;DHT22;1259;48.306;14.374;2023-05-31T00:40:33;13.60;63.10
2497;DHT22;1259;48.306;14.374;2023-05-31T00:43:00;13.60;63.30
2497;DHT22;1259;48.306;14.374;2023-05-31T00:45:27;13.60;63.60
2497;DHT22;1259;48.306;14.374;2023-05-31T00:47:54;13.50;63.50
2497;DHT22;1259;48.306;14.374;2023-05-31T00:50:20;13.50;63.60
2497;DHT22;1259;48.306;14.374;2023-05-31T00:52:49;13.60;63.50
2497;DHT22;1259;48.306;14.374;2023-05-31T00:55:17;13.60;63.10
2497;DHT22;1259;48.306;14.374;2023-05-31T00:57:44;13.50;63.90
2497;DHT22;1259;48.306;14.374;2023-05-31T01:00:11;13.50;64.00
2497;DHT22;1259;48.306;14.374;2023-05-31T01:02:38;13.40;64.10
2497;DHT22;1259;48.306;14.374;2023-05-31T01:05:06;13.40;64.20
2497;DHT22;1259;48.306;14.374;2023-05-31T01:07:33;13.50;64.20
2497;DHT22;1259;48.306;14.374;2023-05-31T01:10:02;13.40;64.30
2497;DHT22;1259;48.306;14.374;2023-05-31T01:12:31;13.30;64.40
2497;DHT22;1259;48.306;14.374;2023-05-31T01:15:03;13.30;64.30
2497;DHT22;1259;48.306;14.374;2023-05-31T01:17:34;13.20;64.60
2497;DHT22;1259;48.306;14.374;2023-05-31T01:20:06;13.20;64.80
2497;DHT22;1259;48.306;14.374;2023-05-31T01:22:43;13.10;64.90
2497;DHT22;1259;48.306;14.374;2023-05-31T01:25:33;13.10;65.30
2497;DHT22;1259;48.306;14.374;2023-05-31T01:28:03;13.10;65.20
2497;DHT22;1259;48.306;14.374;2023-05-31T01:30:31;13.20;65.10
2497;DHT22;1259;48.306;14.374;2023-05-31T01:32:59;13.20;65.80
2497;DHT22;1259;48.306;14.374;2023-05-31T01:35:26;13.20;65.50
2497;DHT22;1259;48.306;14.374;2023-05-31T01:37:53;13.20;65.10
2497;DHT22;1259;48.306;14.374;2023-05-31T01:40:20;13.30;65.50
2497;DHT22;1259;48.306;14.374;2023-05-31T01:42:47;13.30;64.90
2497;DHT22;1259;48.306;14.374;2023-05-31T01:45:17;13.40;64.60
2497;DHT22;1259;48.306;14.374;2023-05-31T01:47:44;13.50;64.00
2497;DHT22;1259;48.306;14.374;2023-05-31T01:50:12;13.40;64.20
2497;DHT22;1259;48.306;14.374;2023-05-31T01:52:39;13.40;64.30
2497;DHT22;1259;48.306;14.374;2023-05-31T01:55:06;13.40;64.40
2497;DHT22;1259;48.306;14.374;2023-05-31T01:57:33;13.40;64.30
2497;DHT22;1259;48.306;14.374;2023-05-31T02:00:00;13.30;64.60
2497;DHT22;1259;48.306;14.374;2023-05-31T02:02:30;13.40;64.60
2497;DHT22;1259;48.306;14.374;2023-05-31T02:05:03;13.30;65.40
2497;DHT22;1259;48.306;14.374;2023-05-31T02:07:30;13.30;64.90
2497;DHT22;1259;48.306;14.374;2023-05-31T02:09:57;13.20;65.10
2497;DHT22;1259;48.306;14.374;2023-05-31T02:12:24;13.20;65.30
2497;DHT22;1259;48.306;14.374;2023-05-31T02:14:51;13.10;65.60
2497;DHT22;1259;48.306;14.374;2023-05-31T02:17:17;13.10;65.90
2497;DHT22;1259;48.306;14.374;2023-05-31T02:19:50;13.10;66.00
2497;DHT22;1259;48.306;14.374;2023-05-31T02:22:17;13.10;66.00
2497;DHT22;1259;48.306;14.374;2023-05-31T02:24:43;13.00;66.10
2497;DHT22;1259;48.306;14.374;2023-05-31T02:27:10;12.90;66.50
2497;DHT22;1259;48.306;14.374;2023-05-31T02:29:37;12.90;66.80
2497;DHT22;1259;48.306;14.374;2023-05-31T02:32:04;12.90;66.90
2497;DHT22;1259;48.306;14.374;2023-05-31T02:34:31;12.90;66.60
2497;DHT22;1259;48.306;14.374;2023-05-31T02:37:00;13.00;66.70
2497;DHT22;1259;48.306;14.374;2023-05-31T02:39:28;13.00;66.50
2497;DHT22;1259;48.306;14.374;2023-05-31T02:41:54;13.10;66.40
2497;DHT22;1259;48.306;14.374;2023-05-31T02:44:21;13.10;66.50
2497;DHT22;1259;48.306;14.374;2023-05-31T02:46:48;13.00;66.70
2497;DHT22;1259;48.306;14.374;2023-05-31T02:49:14;13.00;66.80
2497;DHT22;1259;48.306;14.374;2023-05-31T02:51:41;13.10;66.60
2497;DHT22;1259;48.306;14.374;2023-05-31T02:54:09;13.00;66.90
2497;DHT22;1259;48.306;14.374;2023-05-31T02:56:36;13.10;66.50
2497;DHT22;1259;48.306;14.374;2023-05-31T02:59:02;13.00;67.40
2497;DHT22;1259;48.306;14.374;2023-05-31T03:01:29;13.00;67.40
2497;DHT22;1259;48.306;14.374;2023-05-31T03:03:56;12.90;67.70
2497;DHT22;1259;48.306;14.374;2023-05-31T03:06:22;12.90;67.60
2497;DHT22;1259;48.306;14.374;2023-05-31T03:08:50;12.80;68.10
2497;DHT22;1259;48.306;14.374;2023-05-31T03:11:18;12.90;68.30
2497;DHT22;1259;48.306;14.374;2023-05-31T03:13:44;12.90;68.40
2497;DHT22;1259;48.306;14.374;2023-05-31T03:16:11;12.80;68.70
2497;DHT22;1259;48.306;14.374;2023-05-31T03:18:38;12.80;68.90
2497;DHT22;1259;48.306;14.374;2023-05-31T03:21:04;12.80;69.10
2497;DHT22;1259;48.306;14.374;2023-05-31T03:23:31;12.80;68.80
2497;DHT22;1259;48.306;14.374;2023-05-31T03:25:58;12.70;69.20
2497;DHT22;1259;48.306;14.374;2023-05-31T03:28:26;12.80;69.40
2497;DHT22;1259;48.306;14.374;2023-05-31T03:30:52;12.70;69.70
2497;DHT22;1259;48.306;14.374;2023-05-31T03:33:19;12.70;70.00
2497;DHT22;1259;48.306;14.374;2023-05-31T03:35:46;12.80;70.20
2497;DHT22;1259;48.306;14.374;2023-05-31T03:38:13;12.80;70.00
2497;DHT22;1259;48.306;14.374;2023-05-31T03:40:40;12.80;70.10
2497;DHT22;1259;48.306;14.374;2023-05-31T03:43:06;12.70;70.40
2497;DHT22;1259;48.306;14.374;2023-05-31T03:45:34;12.70;70.60
2497;DHT22;1259;48.306;14.374;2023-05-31T03:48:01;12.70;70.80
2497;DHT22;1259;48.306;14.374;2023-05-31T03:50:28;12.70;70.80
2497;DHT22;1259;48.306;14.374;2023-05-31T03:52:54;12.70;71.00
2497;DHT22;1259;48.306;14.374;2023-05-31T03:55:21;12.70;70.80
2497;DHT22;1259;48.306;14.374;2023-05-31T03:57:50;12.70;71.40
2497;DHT22;1259;48.306;14.374;2023-05-31T04:00:17;12.80;70.80
2497;DHT22;1259;48.306;14.374;2023-05-31T04:02:45;12.80;71.10
2497;DHT22;1259;48.306;14.374;2023-05-31T04:05:12;12.80;71.40
2497;DHT22;1259;48.306;14.374;2023-05-31T04:07:39;12.70;71.10
2497;DHT22;1259;48.306;14.374;2023-05-31T04:10:06;12.80;71.70
2497;DHT22;1259;48.306;14.374;2023-05-31T04:12:33;12.80;72.10
2497;DHT22;1259;48.306;14.374;2023-05-31T04:14:59;12.80;72.00
2497;DHT22;1259;48.306;14.374;2023-05-31T04:17:26;12.70;72.10
2497;DHT22;1259;48.306;14.374;2023-05-31T04:19:54;12.70;72.70
2497;DHT22;1259;48.306;14.374;2023-05-31T04:22:21;12.70;72.90
2497;DHT22;1259;48.306;14.374;2023-05-31T04:24:47;12.70;72.30
2497;DHT22;1259;48.306;14.374;2023-05-31T04:27:14;12.70;72.90
2497;DHT22;1259;48.306;14.374;2023-05-31T04:29:43;12.70;73.70
2497;DHT22;1259;48.306;14.374;2023-05-31T04:32:11;12.80;74.10
2497;DHT22;1259;48.306;14.374;2023-05-31T04:34:39;12.80;72.90
2497;DHT22;1259;48.306;14.374;2023-05-31T04:37:08;12.80;73.40
2497;DHT22;1259;48.306;14.374;2023-05-31T04:39:35;12.80;73.20
2497;DHT22;1259;48.306;14.374;2023-05-31T04:42:02;12.90;73.70
2497;DHT22;1259;48.306;14.374;2023-05-31T04:44:28;12.90;73.80
2497;DHT22;1259;48.306;14.374;2023-05-31T04:46:55;12.90;73.40
2497;DHT22;1259;48.306;14.374;2023-05-31T04:49:23;12.90;74.10
2497;DHT22;1259;48.306;14.374;2023-05-31T04:51:50;12.90;73.70
2497;DHT22;1259;48.306;14.374;2023-05-31T04:54:18;13.00;74.10
2497;DHT22;1259;48.306;14.374;2023-05-31T04:56:45;13.00;74.00
2497;DHT22;1259;48.306;14.374;2023-05-31T04:59:12;13.00;74.60
2497;DHT22;1259;48.306;14.374;2023-05-31T05:01:38;13.10;74.80
2497;DHT22;1259;48.306;14.374;2023-05-31T05:04:05;13.10;74.00
2497;DHT22;1259;48.306;14.374;2023-05-31T05:06:32;13.10;74.40
2497;DHT22;1259;48.306;14.374;2023-05-31T05:09:03;13.20;75.20
2497;DHT22;1259;48.306;14.374;2023-05-31T05:11:31;13.20;73.80
2497;DHT22;1259;48.306;14.374;2023-05-31T05:13:57;13.20;74.40
2497;DHT22;1259;48.306;14.374;2023-05-31T05:16:24;13.20;74.00
2497;DHT22;1259;48.306;14.374;2023-05-31T05:18:51;13.20;75.10
2497;DHT22;1259;48.306;14.374;2023-05-31T05:21:17;13.30;75.30
2497;DHT22;1259;48.306;14.374;2023-05-31T05:23:44;13.40;73.90
2497;DHT22;1259;48.306;14.374;2023-05-31T05:26:11;13.40;74.20
2497;DHT22;1259;48.306;14.374;2023-05-31T05:28:39;13.40;75.30
2497;DHT22;1259;48.306;14.374;2023-05-31T05:31:06;13.50;74.90
2497;DHT22;1259;48.306;14.374;2023-05-31T05:33:33;13.50;75.10
2497;DHT22;1259;48.306;14.374;2023-05-31T05:36:00;13.50;74.50
2497;DHT22;1259;48.306;14.374;2023-05-31T05:38:27;13.60;75.10
2497;DHT22;1259;48.306;14.374;2023-05-31T05:40:54;13.70;76.20
2497;DHT22;1259;48.306;14.374;2023-05-31T05:43:20;13.80;75.00
2497;DHT22;1259;48.306;14.374;2023-05-31T05:45:49;13.80;76.70
2497;DHT22;1259;48.306;14.374;2023-05-31T05:48:15;14.00;75.20
2497;DHT22;1259;48.306;14.374;2023-05-31T05:50:42;14.00;75.40
2497;DHT22;1259;48.306;14.374;2023-05-31T05:53:09;14.00;75.20
2497;DHT22;1259;48.306;14.374;2023-05-31T05:55:36;14.10;75.60
2497;DHT22;1259;48.306;14.374;2023-05-31T05:58:03;14.30;77.00
2497;DHT22;1259;48.306;14.374;2023-05-31T06:00:30;14.40;76.30
2497;DHT22;1259;48.306;14.374;2023-05-31T06:02:58;14.70;74.60
2497;DHT22;1259;48.306;14.374;2023-05-31T06:05:25;14.60;74.20
2497;DHT22;1259;48.306;14.374;2023-05-31T06:07:53;14.80;77.80
2497;DHT22;1259;48.306;14.374;2023-05-31T06:10:20;14.90;74.50
2497;DHT22;1259;48.306;14.374;2023-05-31T06:12:47;14.90;75.90
2497;DHT22;1259;48.306;14.374;2023-05-31T06:15:13;15.20;75.20
2497;DHT22;1259;48.306;14.374;2023-05-31T06:17:40;15.10;73.20
2497;DHT22;1259;48.306;14.374;2023-05-31T06:20:09;15.30;75.00
2497;DHT22;1259;48.306;14.374;2023-05-31T06:22:36;15.40;75.60
2497;DHT22;1259;48.306;14.374;2023-05-31T06:25:03;15.70;77.10
2497;DHT22;1259;48.306;14.374;2023-05-31T06:27:30;15.80;73.30
2497;DHT22;1259;48.306;14.374;2023-05-31T06:29:57;15.80;74.30
2497;DHT22;1259;48.306;14.374;2023-05-31T06:32:24;15.90;74.80
2497;DHT22;1259;48.306;14.374;2023-05-31T06:34:51;15.70;72.20
2497;DHT22;1259;48.306;14.374;2023-05-31T06:37:19;16.00;72.80
2497;DHT22;1259;48.306;14.374;2023-05-31T06:39:47;16.00;74.10
2497;DHT22;1259;48.306;14.374;2023-05-31T06:42:13;16.10;74.00
2497;DHT22;1259;48.306;14.374;2023-05-31T06:44:41;16.20;74.80
2497;DHT22;1259;48.306;14.374;2023-05-31T06:47:08;16.00;74.10
2497;DHT22;1259;48.306;14.374;2023-05-31T06:49:35;16.40;76.00
2497;DHT22;1259;48.306;14.374;2023-05-31T06:52:02;16.40;73.60
2497;DHT22;1259;48.306;14.374;2023-05-31T06:54:33;16.30;73.60
2497;DHT22;1259;48.306;14.374;2023-05-31T06:57:00;16.70;74.40
2497;DHT22;1259;48.306;14.374;2023-05-31T06:59:27;16.70;73.50
2497;DHT22;1259;48.306;14.374;2023-05-31T07:01:53;16.80;72.60
2497;DHT22;1259;48.306;14.374;2023-05-31T07:04:20;17.10;73.90
2497;DHT22;1259;48.306;14.374;2023-05-31T07:06:47;16.90;71.60
2497;DHT22;1259;48.306;14.374;2023-05-31T07:09:13;16.90;72.70
2497;DHT22;1259;48.306;14.374;2023-05-31T07:11:42;17.00;74.10
2497;DHT22;1259;48.306;14.374;2023-05-31T07:14:09;17.00;72.70
2497;DHT22;1259;48.306;14.374;2023-05-31T07:16:35;17.00;72.60
2497;DHT22;1259;48.306;14.374;2023-05-31T07:19:02;17.20;74.80
2497;DHT22;1259;48.306;14.374;2023-05-31T07:21:29;17.30;73.60
2497;DHT22;1259;48.306;14.374;2023-05-31T07:23:56;17.50;75.20
2497;DHT22;1259;48.306;14.374;2023-05-31T07:26:23;17.90;74.40
2497;DHT22;1259;48.306;14.374;2023-05-31T07:28:51;17.70;71.40
2497;DHT22;1259;48.306;14.374;2023-05-31T07:31:18;17.80;72.80
2497;DHT22;1259;48.306;14.374;2023-05-31T07:33:45;18.30;74.20
2497;DHT22;1259;48.306;14.374;2023-05-31T07:36:12;17.60;69.80
2497;DHT22;1259;48.306;14.374;2023-05-31T07:38:38;18.30;74.10
2497;DHT22;1259;48.306;14.374;2023-05-31T07:41:05;18.10;70.90
2497;DHT22;1259;48.306;14.374;2023-05-31T07:43:32;18.30;72.50
2497;DHT22;1259;48.306;14.374;2023-05-31T07:46:01;18.80;74.80
2497;DHT22;1259;48.306;14.374;2023-05-31T07:48:28;18.90;74.00
2497;DHT22;1259;48.306;14.374;2023-05-31T07:50:57;19.50;72.70
2497;DHT22;1259;48.306;14.374;2023-05-31T07:53:24;19.60;70.90
2497;DHT22;1259;48.306;14.374;2023-05-31T07:55:51;19.50;70.30
2497;DHT22;1259;48.306;14.374;2023-05-31T07:58:17;19.70;68.20
2497;DHT22;1259;48.306;14.374;2023-05-31T08:00:45;20.00;70.40
2497;DHT22;1259;48.306;14.374;2023-05-31T08:03:13;20.20;70.90
2497;DHT22;1259;48.306;14.374;2023-05-31T08:05:40;19.90;68.20
2497;DHT22;1259;48.306;14.374;2023-05-31T08:08:06;20.10;69.90
2497;DHT22;1259;48.306;14.374;2023-05-31T08:10:33;20.00;69.50
2497;DHT22;1259;48.306;14.374;2023-05-31T08:13:00;20.50;69.70
2497;DHT22;1259;48.306;14.374;2023-05-31T08:15:27;20.80;69.00
2497;DHT22;1259;48.306;14.374;2023-05-31T08:17:53;21.10;69.50
2497;DHT22;1259;48.306;14.374;2023-05-31T08:20:21;21.20;68.80
2497;DHT22;1259;48.306;14.374;2023-05-31T08:22:48;21.30;68.40
2497;DHT22;1259;48.306;14.374;2023-05-31T08:25:15;21.30;68.10
2497;DHT22;1259;48.306;14.374;2023-05-31T08:27:43;21.40;69.30
2497;DHT22;1259;48.306;14.374;2023-05-31T08:30:10;21.70;68.80
2497;DHT22;1259;48.306;14.374;2023-05-31T08:32:37;21.50;68.20
2497;DHT22;1259;48.306;14.374;2023-05-31T08:35:06;21.40;70.40
2497;DHT22;1259;48.306;14.374;2023-05-31T08:37:34;21.10;68.20
2497;DHT22;1259;48.306;14.374;2023-05-31T08:40:01;21.50;70.40
2497;DHT22;1259;48.306;14.374;2023-05-31T08:42:31;21.70;67.80
2497;DHT22;1259;48.306;14.374;2023-05-31T08:45:01;21.70;68.50
2497;DHT22;1259;48.306;14.374;2023-05-31T08:47:28;21.50;67.40
2497;DHT22;1259;48.306;14.374;2023-05-31T08:49:57;21.70;67.40
2497;DHT22;1259;48.306;14.374;2023-05-31T08:52:24;21.90;68.20
2497;DHT22;1259;48.306;14.374;2023-05-31T08:54:53;21.80;68.60
2497;DHT22;1259;48.306;14.374;2023-05-31T08:57:20;22.10;68.20
2497;DHT22;1259;48.306;14.374;2023-05-31T08:59:47;22.00;68.70
2497;DHT22;1259;48.306;14.374;2023-05-31T09:02:15;22.20;66.70
2497;DHT22;1259;48.306;14.374;2023-05-31T09:04:42;22.50;65.60
2497;DHT22;1259;48.306;14.374;2023-05-31T09:07:09;22.50;67.80
2497;DHT22;1259;48.306;14.374;2023-05-31T09:09:36;22.40;66.20
2497;DHT22;1259;48.306;14.374;2023-05-31T09:12:04;22.70;66.50
2497;DHT22;1259;48.306;14.374;2023-05-31T09:14:31;22.70;67.90
2497;DHT22;1259;48.306;14.374;2023-05-31T09:16:59;22.70;67.30
2497;DHT22;1259;48.306;14.374;2023-05-31T09:19:26;22.70;68.80
2497;DHT22;1259;48.306;14.374;2023-05-31T09:21:52;22.90;68.20
2497;DHT22;1259;48.306;14.374;2023-05-31T09:24:19;23.00;67.90
2497;DHT22;1259;48.306;14.374;2023-05-31T09:26:47;22.50;69.20
2497;DHT22;1259;48.306;14.374;2023-05-31T09:29:15;22.10;70.70
2497;DHT22;1259;48.306;14.374;2023-05-31T09:31:43;22.70;69.40
2497;DHT22;1259;48.306;14.374;2023-05-31T09:34:23;22.70;67.90
2497;DHT22;1259;48.306;14.374;2023-05-31T09:36:50;22.50;68.60
2497;DHT22;1259;48.306;14.374;2023-05-31T09:39:17;22.90;69.50
2497;DHT22;1259;48.306;14.374;2023-05-31T09:41:45;23.20;68.50
2497;DHT22;1259;48.306;14.374;2023-05-31T09:44:16;23.10;69.00
2497;DHT22;1259;48.306;14.374;2023-05-31T09:46:44;23.20;68.00
2497;DHT22;1259;48.306;14.374;2023-05-31T09:49:11;23.00;68.10
2497;DHT22;1259;48.306;14.374;2023-05-31T09:51:37;23.40;69.20
2497;DHT22;1259;48.306;14.374;2023-05-31T09:54:09;23.40;70.80
2497;DHT22;1259;48.306;14.374;2023-05-31T09:56:36;23.40;70.60
2497;DHT22;1259;48.306;14.374;2023-05-31T09:59:03;23.00;72.30
2497;DHT22;1259;48.306;14.374;2023-05-31T10:01:32;23.20;70.60
2497;DHT22;1259;48.306;14.374;2023-05-31T10:03:59;23.40;70.60
2497;DHT22;1259;48.306;14.374;2023-05-31T10:06:27;22.40;72.30
2497;DHT22;1259;48.306;14.374;2023-05-31T10:08:54;22.50;71.70
2497;DHT22;1259;48.306;14.374;2023-05-31T10:11:21;23.10;72.30
2497;DHT22;1259;48.306;14.374;2023-05-31T10:13:52;23.10;71.60
2497;DHT22;1259;48.306;14.374;2023-05-31T10:16:24;23.00;71.40
2497;DHT22;1259;48.306;14.374;2023-05-31T10:18:54;23.40;69.60
2497;DHT22;1259;48.306;14.374;2023-05-31T10:21:24;23.00;70.50
2497;DHT22;1259;48.306;14.374;2023-05-31T10:23:53;23.40;70.60
2497;DHT22;1259;48.306;14.374;2023-05-31T10:26:22;23.40;73.60
2497;DHT22;1259;48.306;14.374;2023-05-31T10:28:50;23.50;71.10
2497;DHT22;1259;48.306;14.374;2023-05-31T10:31:19;23.40;70.60
2497;DHT22;1259;48.306;14.374;2023-05-31T10:33:51;23.30;71.60
2497;DHT22;1259;48.306;14.374;2023-05-31T10:36:20;22.80;70.50
2497;DHT22;1259;48.306;14.374;2023-05-31T10:38:48;23.30;72.60
2497;DHT22;1259;48.306;14.374;2023-05-31T10:41:17;23.00;71.30
2497;DHT22;1259;48.306;14.374;2023-05-31T10:43:48;23.10;72.10
2497;DHT22;1259;48.306;14.374;2023-05-31T10:46:19;23.30;70.10
2497;DHT22;1259;48.306;14.374;2023-05-31T10:48:48;23.60;72.80
2497;DHT22;1259;48.306;14.374;2023-05-31T10:51:17;23.80;72.60
2497;DHT22;1259;48.306;14.374;2023-05-31T10:53:45;23.50;70.60
2497;DHT22;1259;48.306;14.374;2023-05-31T10:56:12;23.30;72.70
2497;DHT22;1259;48.306;14.374;2023-05-31T10:58:40;23.70;72.10
2497;DHT22;1259;48.306;14.374;2023-05-31T11:01:10;23.80;73.10
2497;DHT22;1259;48.306;14.374;2023-05-31T11:03:43;23.10;72.10
2497;DHT22;1259;48.306;14.374;2023-05-31T11:06:10;23.00;73.40
2497;DHT22;1259;48.306;14.374;2023-05-31T11:08:39;22.80;71.70
2497;DHT22;1259;48.306;14.374;2023-05-31T11:11:26;23.10;73.10
2497;DHT22;1259;48.306;14.374;2023-05-31T11:13:59;23.40;73.20
2497;DHT22;1259;48.306;14.374;2023-05-31T11:16:27;23.70;71.80
2497;DHT22;1259;48.306;14.374;2023-05-31T11:19:04;22.50;69.30
2497;DHT22;1259;48.306;14.374;2023-05-31T11:21:49;22.90;74.00
2497;DHT22;1259;48.306;14.374;2023-05-31T11:24:26;22.50;71.20
2497;DHT22;1259;48.306;14.374;2023-05-31T11:26:54;22.60;74.30
2497;DHT22;1259;48.306;14.374;2023-05-31T11:29:21;23.00;74.50
2497;DHT22;1259;48.306;14.374;2023-05-31T11:31:57;23.10;72.50
2497;DHT22;1259;48.306;14.374;2023-05-31T11:34:25;23.40;74.10
2497;DHT22;1259;48.306;14.374;2023-05-31T11:36:53;23.10;70.40
2497;DHT22;1259;48.306;14.374;2023-05-31T11:39:19;23.30;72.80
2497;DHT22;1259;48.306;14.374;2023-05-31T11:41:46;23.70;72.20
2497;DHT22;1259;48.306;14.374;2023-05-31T11:44:16;23.10;68.00
2497;DHT22;1259;48.306;14.374;2023-05-31T11:46:46;23.20;74.40
2497;DHT22;1259;48.306;14.374;2023-05-31T11:49:13;23.50;72.10
2497;DHT22;1259;48.306;14.374;2023-05-31T11:51:41;23.70;71.50
2497;DHT22;1259;48.306;14.374;2023-05-31T11:54:08;23.60;72.90
2497;DHT22;1259;48.306;14.374;2023-05-31T11:56:37;23.50;72.00
2497;DHT22;1259;48.306;14.374;2023-05-31T11:59:04;23.70;75.20
2497;DHT22;1259;48.306;14.374;2023-05-31T12:01:36;23.90;70.90
2497;DHT22;1259;48.306;14.374;2023-05-31T12:04:04;23.90;69.80
2497;DHT22;1259;48.306;14.374;2023-05-31T12:06:30;23.90;69.30
2497;DHT22;1259;48.306;14.374;2023-05-31T12:08:58;23.20;70.30
2497;DHT22;1259;48.306;14.374;2023-05-31T12:11:26;23.10;69.30
2497;DHT22;1259;48.306;14.374;2023-05-31T12:13:53;23.10;70.10
2497;DHT22;1259;48.306;14.374;2023-05-31T12:16:20;23.60;71.60
2497;DHT22;1259;48.306;14.374;2023-05-31T12:18:48;23.80;69.70
2497;DHT22;1259;48.306;14.374;2023-05-31T12:21:15;23.90;70.90
2497;DHT22;1259;48.306;14.374;2023-05-31T12:23:52;23.70;71.10
2497;DHT22;1259;48.306;14.374;2023-05-31T12:26:19;23.80;73.10
2497;DHT22;1259;48.306;14.374;2023-05-31T12:28:46;23.90;72.50
2497;DHT22;1259;48.306;14.374;2023-05-31T12:31:18;23.90;69.90
2497;DHT22;1259;48.306;14.374;2023-05-31T12:33:51;23.60;70.10
2497;DHT22;1259;48.306;14.374;2023-05-31T12:36:18;23.80;69.70
2497;DHT22;1259;48.306;14.374;2023-05-31T12:38:45;23.40;70.30
2497;DHT22;1259;48.306;14.374;2023-05-31T12:41:12;23.40;69.40
2497;DHT22;1259;48.306;14.374;2023-05-31T12:43:39;23.00;70.00
2497;DHT22;1259;48.306;14.374;2023-05-31T12:46:06;22.30;72.30
2497;DHT22;1259;48.306;14.374;2023-05-31T12:48:33;22.20;72.40
2497;DHT22;1259;48.306;14.374;2023-05-31T12:51:01;22.10;74.30
2497;DHT22;1259;48.306;14.374;2023-05-31T12:53:30;22.30;72.40
2497;DHT22;1259;48.306;14.374;2023-05-31T12:55:57;22.30;70.20
2497;DHT22;1259;48.306;14.374;2023-05-31T12:58:24;21.80;70.30
2497;DHT22;1259;48.306;14.374;2023-05-31T13:00:50;21.90;69.30
2497;DHT22;1259;48.306;14.374;2023-05-31T13:03:17;21.90;71.10
2497;DHT22;1259;48.306;14.374;2023-05-31T13:05:44;22.30;72.20
2497;DHT22;1259;48.306;14.374;2023-05-31T13:08:12;22.40;69.40
2497;DHT22;1259;48.306;14.374;2023-05-31T13:10:38;22.50;71.00
2497;DHT22;1259;48.306;14.374;2023-05-31T13:13:06;22.90;70.10
2497;DHT22;1259;48.306;14.374;2023-05-31T13:15:32;22.70;65.40
2497;DHT22;1259;48.306;14.374;2023-05-31T13:17:59;22.80;70.80
2497;DHT22;1259;48.306;14.374;2023-05-31T13:20:26;23.00;67.80
2497;DHT22;1259;48.306;14.374;2023-05-31T13:22:53;23.30;68.70
2497;DHT22;1259;48.306;14.374;2023-05-31T13:25:21;23.20;68.50
2497;DHT22;1259;48.306;14.374;2023-05-31T13:27:47;23.10;70.20
2497;DHT22;1259;48.306;14.374;2023-05-31T13:30:15;23.00;69.00
2497;DHT22;1259;48.306;14.374;2023-05-31T13:32:42;22.70;67.70
2497;DHT22;1259;48.306;14.374;2023-05-31T13:35:08;22.70;67.50
2497;DHT22;1259;48.306;14.374;2023-05-31T13:37:35;22.90;71.70
2497;DHT22;1259;48.306;14.374;2023-05-31T13:40:02;23.00;67.30
2497;DHT22;1259;48.306;14.374;2023-05-31T13:42:31;22.90;66.50
2497;DHT22;1259;48.306;14.374;2023-05-31T13:44:57;23.00;70.20
2497;DHT22;1259;48.306;14.374;2023-05-31T13:47:24;22.80;65.40
2497;DHT22;1259;48.306;14.374;2023-05-31T13:49:51;22.70;65.90
2497;DHT22;1259;48.306;14.374;2023-05-31T13:52:17;23.10;66.80
2497;DHT22;1259;48.306;14.374;2023-05-31T13:54:44;23.40;68.20
2497;DHT22;1259;48.306;14.374;2023-05-31T13:57:11;23.40;67.00
2497;DHT22;1259;48.306;14.374;2023-05-31T13:59:39;23.50;67.10
2497;DHT22;1259;48.306;14.374;2023-05-31T14:02:06;23.40;65.30
2497;DHT22;1259;48.306;14.374;2023-05-31T14:04:33;23.50;67.80
2497;DHT22;1259;48.306;14.374;2023-05-31T14:07:00;23.50;66.20
2497;DHT22;1259;48.306;14.374;2023-05-31T14:09:28;23.60;66.00
2497;DHT22;1259;48.306;14.374;2023-05-31T14:11:55;23.30;66.90
2497;DHT22;1259;48.306;14.374;2023-05-31T14:14:22;23.60;69.00
2497;DHT22;1259;48.306;14.374;2023-05-31T14:16:50;23.60;66.90
2497;DHT22;1259;48.306;14.374;2023-05-31T14:19:17;23.60;67.70
2497;DHT22;1259;48.306;14.374;2023-05-31T14:21:44;23.60;67.10
2497;DHT22;1259;48.306;14.374;2023-05-31T14:24:11;23.20;65.50
2497;DHT22;1259;48.306;14.374;2023-05-31T14:26:38;23.30;68.80
2497;DHT22;1259;48.306;14.374;2023-05-31T14:29:04;23.50;67.00
2497;DHT22;1259;48.306;14.374;2023-05-31T14:31:31;23.30;65.90
2497;DHT22;1259;48.306;14.374;2023-05-31T14:33:59;23.50;65.80
2497;DHT22;1259;48.306;14.374;2023-05-31T14:36:26;23.40;66.20
2497;DHT22;1259;48.306;14.374;2023-05-31T14:38:52;23.10;66.30
2497;DHT22;1259;48.306;14.374;2023-05-31T14:41:19;23.40;66.90
2497;DHT22;1259;48.306;14.374;2023-05-31T14:43:46;23.40;65.10
2497;DHT22;1259;48.306;14.374;2023-05-31T14:46:13;23.10;66.40
2497;DHT22;1259;48.306;14.374;2023-05-31T14:48:39;23.20;65.80
2497;DHT22;1259;48.306;14.374;2023-05-31T14:51:07;23.20;66.70
2497;DHT22;1259;48.306;14.374;2023-05-31T14:53:34;23.00;65.80
2497;DHT22;1259;48.306;14.374;2023-05-31T14:56:01;23.10;66.00
2497;DHT22;1259;48.306;14.374;2023-05-31T14:58:28;23.20;66.20
2497;DHT22;1259;48.306;14.374;2023-05-31T15:00:54;23.30;65.70
2497;DHT22;1259;48.306;14.374;2023-05-31T15:03:21;23.40;65.60
2497;DHT22;1259;48.306;14.374;2023-05-31T15:05:48;23.40;64.80
2497;DHT22;1259;48.306;14.374;2023-05-31T15:08:16;23.40;66.50
2497;DHT22;1259;48.306;14.374;2023-05-31T15:10:42;23.20;67.60
2497;DHT22;1259;48.306;14.374;2023-05-31T15:13:09;23.30;66.80
2497;DHT22;1259;48.306;14.374;2023-05-31T15:15:36;23.40;68.20
2497;DHT22;1259;48.306;14.374;2023-05-31T15:18:03;23.40;66.50
2497;DHT22;1259;48.306;14.374;2023-05-31T15:20:31;23.40;66.40
2497;DHT22;1259;48.306;14.374;2023-05-31T15:22:57;23.20;68.30
2497;DHT22;1259;48.306;14.374;2023-05-31T15:25:25;23.00;68.20
2497;DHT22;1259;48.306;14.374;2023-05-31T15:27:52;23.10;68.20
2497;DHT22;1259;48.306;14.374;2023-05-31T15:30:19;23.20;67.80
2497;DHT22;1259;48.306;14.374;2023-05-31T15:32:45;23.00;66.20
2497;DHT22;1259;48.306;14.374;2023-05-31T15:35:12;22.80;66.80
2497;DHT22;1259;48.306;14.374;2023-05-31T15:37:39;23.00;67.30
2497;DHT22;1259;48.306;14.374;2023-05-31T15:40:06;23.00;66.80
2497;DHT22;1259;48.306;14.374;2023-05-31T15:42:34;22.90;66.30
2497;DHT22;1259;48.306;14.374;2023-05-31T15:45:01;23.10;66.60
2497;DHT22;1259;48.306;14.374;2023-05-31T15:47:28;23.00;67.90